Wilder, Idaho
Current Conditions -  °F | °C
As of 5:55 AM on Saturday 25 Oct 2014 (Local Time) from KEUL Reporting Station
Overcast Overcast  
Wind Chill: 43°   Ceiling: 100
Heat Index: 43°   Visibility: 0mi
Dew Point: 36°   Wind: 3mph
Humidity: 76%   Direction: 150°SSE
Pressure: 29.88"   Gusts: NA
Location:  43.68°N, 116.91°W
Report Text: KEUL 251155Z AUTO 15003KT M1/4SM OVC001 06/02 A2988 RMK AO1 70001 10090 20060 57014
Loading
Personal Weather Stations






























Interactive Weather Map
Tropical Storm Tracking
New forecast layout! Learn more

10-Day Weather Forecast

Advertisements
Track Severe Weather on mobile